createdAt,value
2023-01-18T00:00:45.656Z,37.10
2023-01-18T00:04:21.959Z,41.00
2023-01-18T00:07:50.241Z,27.30
2023-01-18T00:11:20.527Z,25.50
2023-01-18T00:14:47.984Z,22.80
2023-01-18T00:18:18.185Z,19.90
2023-01-18T00:21:46.300Z,18.40
2023-01-18T00:25:17.657Z,22.10
2023-01-18T00:28:44.811Z,23.60
2023-01-18T00:32:16.487Z,30.70
2023-01-18T00:35:44.571Z,24.60
2023-01-18T00:39:13.607Z,17.10
2023-01-18T00:43:01.171Z,16.20
2023-01-18T00:46:35.742Z,16.80
2023-01-18T00:50:03.247Z,15.70
2023-01-18T00:53:31.182Z,14.30
2023-01-18T00:56:59.153Z,13.60
2023-01-18T01:00:27.740Z,13.10
2023-01-18T01:04:12.904Z,12.80
2023-01-18T01:07:43.543Z,12.10
2023-01-18T01:11:14.900Z,11.90
2023-01-18T01:15:05.899Z,12.30
2023-01-18T01:18:51.281Z,12.40
2023-01-18T01:22:36.423Z,11.90
2023-01-18T01:26:08.307Z,15.00
2023-01-18T01:29:39.628Z,15.90
2023-01-18T01:33:07.702Z,15.60
2023-01-18T01:36:35.833Z,16.10
2023-01-18T01:40:04.256Z,18.60
2023-01-18T01:43:47.355Z,17.60
2023-01-18T01:47:26.748Z,17.40
2023-01-18T01:50:54.834Z,17.30
2023-01-18T01:54:29.553Z,17.40
2023-01-18T01:58:00.904Z,16.00
2023-01-18T02:01:29.630Z,17.60
2023-01-18T02:05:00.764Z,16.40
2023-01-18T02:08:29.995Z,17.50
2023-01-18T02:11:58.386Z,17.50
2023-01-18T02:15:33.112Z,16.70
2023-01-18T02:19:11.084Z,21.80
2023-01-18T02:23:05.435Z,22.30
2023-01-18T02:30:32.285Z,20.70
2023-01-18T02:34:07.494Z,20.30
2023-01-18T02:37:45.770Z,20.90
2023-01-18T02:41:21.348Z,20.40
2023-01-18T02:45:06.864Z,20.60
2023-01-18T02:48:37.299Z,18.60
2023-01-18T02:52:06.817Z,18.40
2023-01-18T02:55:46.976Z,18.80
2023-01-18T02:59:18.006Z,19.60
2023-01-18T03:02:47.729Z,19.50
2023-01-18T03:06:15.357Z,19.00
2023-01-18T03:09:46.689Z,19.20
2023-01-18T03:13:23.665Z,19.10
2023-01-18T03:17:00.646Z,19.60
2023-01-18T03:20:32.700Z,18.80
2023-01-18T03:24:01.373Z,19.40
2023-01-18T03:27:46.177Z,19.00
2023-01-18T03:31:35.862Z,19.30
2023-01-18T03:35:09.165Z,22.00
2023-01-18T03:42:08.100Z,23.30
2023-01-18T03:45:38.891Z,22.50
2023-01-18T03:49:06.237Z,21.20
2023-01-18T03:52:42.191Z,23.30
2023-01-18T03:56:15.512Z,24.80
2023-01-18T03:59:43.085Z,23.40
2023-01-18T04:03:11.122Z,23.50
2023-01-18T04:06:39.189Z,22.50
2023-01-18T04:10:06.585Z,22.60
2023-01-18T04:13:33.138Z,23.10
2023-01-18T04:17:02.243Z,24.00
2023-01-18T04:20:29.280Z,28.10
2023-01-18T04:23:56.255Z,30.30
2023-01-18T04:27:24.337Z,28.60
2023-01-18T04:30:55.088Z,27.70
2023-01-18T04:34:25.130Z,26.20
2023-01-18T04:37:56.111Z,28.50
2023-01-18T04:41:33.464Z,32.00
2023-01-18T04:45:01.520Z,29.30
2023-01-18T04:48:28.569Z,27.10
2023-01-18T04:51:56.086Z,27.00
2023-01-18T04:55:23.104Z,26.40
2023-01-18T04:58:51.280Z,26.80
2023-01-18T05:02:20.529Z,27.70
2023-01-18T05:05:48.342Z,25.40
2023-01-18T05:09:16.264Z,25.20
2023-01-18T05:12:43.166Z,26.40
2023-01-18T05:16:14.634Z,26.50
2023-01-18T05:19:41.800Z,25.20
2023-01-18T05:23:11.335Z,23.60
2023-01-18T05:26:38.736Z,23.40
2023-01-18T05:30:06.956Z,23.00
2023-01-18T05:33:34.128Z,23.30
2023-01-18T05:37:01.235Z,23.30
2023-01-18T05:40:28.249Z,23.90
2023-01-18T05:43:54.592Z,21.80
2023-01-18T05:47:21.175Z,22.70
2023-01-18T05:50:49.871Z,21.50
2023-01-18T05:54:17.231Z,21.20
2023-01-18T05:57:44.072Z,24.30
2023-01-18T06:01:10.775Z,26.20
2023-01-18T06:04:38.555Z,25.10
2023-01-18T06:08:06.879Z,26.00
2023-01-18T06:11:34.287Z,26.80
2023-01-18T06:15:01.086Z,27.70
2023-01-18T06:18:30.956Z,26.80
2023-01-18T06:21:59.298Z,25.40
2023-01-18T06:25:27.125Z,26.30
2023-01-18T06:28:54.148Z,25.00
2023-01-18T06:32:23.866Z,29.90
2023-01-18T06:35:53.595Z,27.10
2023-01-18T06:39:20.646Z,24.80
2023-01-18T06:42:50.967Z,28.00
2023-01-18T06:46:19.968Z,36.10
2023-01-18T06:49:46.924Z,39.10
2023-01-18T06:53:14.536Z,50.10
2023-01-18T06:56:41.571Z,39.00
2023-01-18T07:00:10.752Z,40.70
2023-01-18T07:03:38.934Z,32.40
2023-01-18T07:07:06.316Z,33.50
2023-01-18T07:10:33.065Z,31.60
2023-01-18T07:13:59.907Z,27.60
2023-01-18T07:17:28.279Z,25.50
2023-01-18T07:21:01.331Z,26.00
2023-01-18T07:24:28.036Z,27.70
2023-01-18T07:27:56.166Z,27.80
2023-01-18T07:31:24.114Z,25.30
2023-01-18T07:34:51.415Z,28.00
2023-01-18T07:38:18.863Z,27.00
2023-01-18T07:41:45.576Z,27.40
2023-01-18T07:45:14.253Z,28.00
2023-01-18T07:48:41.711Z,32.50
2023-01-18T07:52:08.853Z,43.20
2023-01-18T07:55:39.046Z,38.70
2023-01-18T07:59:06.168Z,31.70
2023-01-18T08:02:33.008Z,28.00
2023-01-18T08:06:02.000Z,26.40
2023-01-18T08:09:28.808Z,26.50
2023-01-18T08:12:57.217Z,25.90
2023-01-18T08:16:24.957Z,28.00
2023-01-18T08:19:52.114Z,26.70
2023-01-18T08:23:20.143Z,37.30
2023-01-18T08:26:47.479Z,41.00
2023-01-18T08:30:17.337Z,39.60
2023-01-18T08:33:50.874Z,40.10
2023-01-18T08:40:45.308Z,33.00
2023-01-18T08:44:13.007Z,27.50
2023-01-18T08:47:41.429Z,28.50
2023-01-18T08:51:08.670Z,25.80
2023-01-18T08:54:37.120Z,25.80
2023-01-18T08:58:04.115Z,32.20
2023-01-18T09:01:31.737Z,26.10
2023-01-18T09:04:59.118Z,26.60
2023-01-18T09:08:26.852Z,24.90
2023-01-18T09:11:58.549Z,26.70
2023-01-18T09:15:27.305Z,23.60
2023-01-18T09:18:55.626Z,24.40
2023-01-18T09:22:22.468Z,25.10
2023-01-18T09:25:50.338Z,22.50
2023-01-18T09:29:17.105Z,21.90
2023-01-18T09:32:43.823Z,26.20
2023-01-18T09:36:13.375Z,22.00
2023-01-18T09:39:51.067Z,20.90
2023-01-18T09:43:28.693Z,21.90
2023-01-18T09:46:59.774Z,19.10
2023-01-18T09:50:29.273Z,19.40
2023-01-18T09:54:08.026Z,20.60
2023-01-18T09:57:47.263Z,18.80
2023-01-18T10:01:17.993Z,18.10
2023-01-18T10:04:51.292Z,19.80
2023-01-18T10:08:24.393Z,23.40
2023-01-18T10:11:59.912Z,22.30
2023-01-18T10:15:32.193Z,21.10
2023-01-18T10:19:02.961Z,19.10
2023-01-18T10:22:34.471Z,18.50
2023-01-18T10:26:08.180Z,16.80
2023-01-18T10:29:49.878Z,17.80
2023-01-18T10:33:23.308Z,17.70
2023-01-18T10:36:54.498Z,16.90
2023-01-18T10:40:26.856Z,16.90
2023-01-18T10:43:56.122Z,18.10
2023-01-18T10:47:28.859Z,18.80
2023-01-18T10:50:57.606Z,20.00
2023-01-18T10:54:30.554Z,19.80
2023-01-18T10:57:58.309Z,19.00
2023-01-18T11:01:29.278Z,19.80
2023-01-18T11:05:03.143Z,18.20
2023-01-18T11:08:32.086Z,17.50
2023-01-18T11:12:37.570Z,16.20
2023-01-18T11:16:15.807Z,16.30
2023-01-18T11:19:42.905Z,16.10
2023-01-18T11:23:23.589Z,16.90
2023-01-18T11:27:10.501Z,17.30
2023-01-18T11:30:49.386Z,14.60
2023-01-18T11:34:28.803Z,15.20
2023-01-18T11:38:03.057Z,18.10
2023-01-18T11:41:29.297Z,15.60
2023-01-18T11:45:17.358Z,15.80
2023-01-18T11:48:51.733Z,14.90
2023-01-18T11:52:30.982Z,15.50
2023-01-18T11:56:07.019Z,15.80
2023-01-18T11:59:40.317Z,16.20
2023-01-18T12:03:38.382Z,18.50
2023-01-18T12:07:27.500Z,17.40
2023-01-18T12:11:08.441Z,18.70
2023-01-18T12:14:50.569Z,17.90
2023-01-18T12:18:33.348Z,17.90
2023-01-18T12:22:22.635Z,17.60
2023-01-18T12:26:12.236Z,16.50
2023-01-18T12:30:05.374Z,17.60
2023-01-18T12:33:44.345Z,17.30
2023-01-18T12:37:31.685Z,14.90
2023-01-18T12:41:42.486Z,16.90
2023-01-18T12:45:24.622Z,14.70
2023-01-18T12:48:58.021Z,15.30
2023-01-18T12:52:25.848Z,16.30
2023-01-18T12:55:55.618Z,15.40
2023-01-18T12:59:25.725Z,15.20
2023-01-18T13:02:59.197Z,17.20
2023-01-18T13:06:27.201Z,16.00
2023-01-18T13:09:55.163Z,15.50
2023-01-18T13:13:31.776Z,16.40
2023-01-18T13:17:09.611Z,15.60
2023-01-18T13:20:49.044Z,17.50
2023-01-18T13:24:28.789Z,15.30
2023-01-18T13:28:14.424Z,15.80
2023-01-18T13:31:41.786Z,15.30
2023-01-18T13:35:21.291Z,17.10
2023-01-18T13:38:55.972Z,18.30
2023-01-18T13:42:38.393Z,19.40
2023-01-18T13:46:20.235Z,19.80
2023-01-18T13:49:49.914Z,22.20
2023-01-18T13:53:49.126Z,24.30
2023-01-18T13:57:20.171Z,18.80
2023-01-18T14:00:51.461Z,23.00
2023-01-18T14:04:32.287Z,28.40
2023-01-18T14:08:02.849Z,30.20
2023-01-18T14:11:34.622Z,24.50
2023-01-18T14:15:02.853Z,21.80
2023-01-18T14:18:32.467Z,19.00
2023-01-18T14:22:25.385Z,22.70
2023-01-18T14:26:01.689Z,23.10
2023-01-18T14:29:40.142Z,28.50
2023-01-18T14:33:18.144Z,31.70
2023-01-18T14:36:46.622Z,29.40
2023-01-18T14:40:26.834Z,28.80
2023-01-18T14:43:58.227Z,29.00
2023-01-18T14:47:27.033Z,21.80
2023-01-18T14:51:07.229Z,20.70
2023-01-18T14:54:37.554Z,22.20
2023-01-18T14:58:14.834Z,17.80
2023-01-18T15:01:45.050Z,18.60
2023-01-18T15:05:17.198Z,21.30
2023-01-18T15:08:46.826Z,21.50
2023-01-18T15:12:23.118Z,19.60
2023-01-18T15:16:01.103Z,18.30
2023-01-18T15:19:39.823Z,18.90
2023-01-18T15:23:08.564Z,24.70
2023-01-18T15:26:54.808Z,17.60
2023-01-18T15:30:40.467Z,18.70
2023-01-18T15:34:19.536Z,17.60
2023-01-18T15:37:59.563Z,15.80
2023-01-18T15:41:36.494Z,14.40
2023-01-18T15:45:28.436Z,14.70
2023-01-18T15:49:03.669Z,14.00
2023-01-18T15:52:49.805Z,16.90
2023-01-18T15:56:38.001Z,16.80
2023-01-18T16:00:28.108Z,16.30
2023-01-18T16:04:08.013Z,21.30
2023-01-18T16:07:53.117Z,20.70
2023-01-18T16:11:46.483Z,17.80
2023-01-18T16:15:34.596Z,18.50
2023-01-18T16:19:18.943Z,27.70
2023-01-18T16:23:04.944Z,22.70
2023-01-18T16:26:38.555Z,26.00
2023-01-18T16:30:45.607Z,16.70
2023-01-18T16:34:28.270Z,28.70
2023-01-18T16:37:58.215Z,22.80
2023-01-18T16:41:25.851Z,34.60
2023-01-18T16:44:54.546Z,31.90
2023-01-18T16:48:33.803Z,22.10
2023-01-18T16:52:00.904Z,18.70
2023-01-18T16:55:29.481Z,26.70
2023-01-18T16:58:56.437Z,17.30
2023-01-18T17:02:24.951Z,20.70
2023-01-18T17:05:53.660Z,18.00
2023-01-18T17:09:26.473Z,16.00
2023-01-18T17:12:55.666Z,17.00
2023-01-18T17:16:22.946Z,15.30
2023-01-18T17:19:51.810Z,16.30
2023-01-18T17:23:19.474Z,16.80
2023-01-18T17:26:46.867Z,16.20
2023-01-18T17:30:19.336Z,23.20
2023-01-18T17:33:49.258Z,22.80
2023-01-18T17:37:17.351Z,20.20
2023-01-18T17:40:46.563Z,20.80
2023-01-18T17:44:24.111Z,26.80
2023-01-18T17:51:25.566Z,20.70
2023-01-18T17:54:52.731Z,21.60
2023-01-18T17:58:25.972Z,20.10
2023-01-18T18:01:55.194Z,19.60
2023-01-18T18:05:24.646Z,19.20
2023-01-18T18:08:53.863Z,20.80
2023-01-18T18:12:25.079Z,20.60
2023-01-18T18:15:58.684Z,23.60
2023-01-18T18:19:29.505Z,23.90
2023-01-18T18:23:02.617Z,22.00
2023-01-18T18:26:32.956Z,24.50
2023-01-18T18:30:04.026Z,25.10
2023-01-18T18:33:36.807Z,27.10
2023-01-18T18:37:06.034Z,26.10
2023-01-18T18:40:36.996Z,25.20
2023-01-18T18:44:04.693Z,25.30
2023-01-18T18:47:33.800Z,28.30
2023-01-18T18:51:02.182Z,27.90
2023-01-18T18:54:29.539Z,30.50
2023-01-18T18:57:57.990Z,27.70
2023-01-18T19:01:29.744Z,28.20
2023-01-18T19:05:01.796Z,26.50
2023-01-18T19:08:34.089Z,25.70
2023-01-18T19:12:06.908Z,25.90
2023-01-18T19:15:36.744Z,23.10
2023-01-18T19:19:07.841Z,22.50
2023-01-18T19:22:43.007Z,21.70
2023-01-18T19:26:10.661Z,23.60
2023-01-18T19:29:39.641Z,22.40
2023-01-18T19:33:15.695Z,21.50
2023-01-18T19:36:42.647Z,28.40
2023-01-18T19:40:14.481Z,29.70
2023-01-18T19:43:43.018Z,30.20
2023-01-18T19:47:10.600Z,27.60
2023-01-18T19:50:40.297Z,27.10
2023-01-18T19:54:28.568Z,26.10
2023-01-18T19:58:01.566Z,25.00
2023-01-18T20:01:36.836Z,23.70
2023-01-18T20:05:04.672Z,24.30
2023-01-18T20:08:34.502Z,25.10
2023-01-18T20:12:03.447Z,24.60
2023-01-18T20:15:31.683Z,26.00
2023-01-18T20:18:59.115Z,27.80
2023-01-18T20:22:26.360Z,23.30
2023-01-18T20:25:55.923Z,20.70
2023-01-18T20:29:22.924Z,20.50
2023-01-18T20:32:50.717Z,19.80
2023-01-18T20:36:18.501Z,19.40
2023-01-18T20:39:56.619Z,21.20
2023-01-18T20:43:23.663Z,20.70
2023-01-18T20:46:55.359Z,18.10
2023-01-18T20:50:24.603Z,19.50
2023-01-18T20:53:52.003Z,19.10
2023-01-18T20:57:19.198Z,19.10
2023-01-18T21:00:46.738Z,19.60
2023-01-18T21:04:14.120Z,20.40
2023-01-18T21:07:42.495Z,18.30
2023-01-18T21:11:17.514Z,18.50
2023-01-18T21:14:45.397Z,17.10
2023-01-18T21:18:17.182Z,16.30
2023-01-18T21:21:50.227Z,16.30
2023-01-18T21:25:21.832Z,16.80
2023-01-18T21:28:49.868Z,16.50
2023-01-18T21:32:23.219Z,19.00
2023-01-18T21:35:53.205Z,20.50
2023-01-18T21:39:25.654Z,19.70
2023-01-18T21:43:13.931Z,22.50
2023-01-18T21:50:42.797Z,22.40
2023-01-18T21:54:23.709Z,21.70
2023-01-18T21:58:09.066Z,23.40
2023-01-18T22:01:43.281Z,22.70
2023-01-18T22:05:13.146Z,24.30
2023-01-18T22:08:41.701Z,29.00
2023-01-18T22:12:14.496Z,28.20
2023-01-18T22:15:43.706Z,26.60
2023-01-18T22:19:13.625Z,28.50
2023-01-18T22:22:41.424Z,27.30
2023-01-18T22:26:08.583Z,26.80
2023-01-18T22:29:39.864Z,23.90
2023-01-18T22:33:11.460Z,22.20
2023-01-18T22:36:40.670Z,22.80
2023-01-18T22:40:11.282Z,21.20
2023-01-18T22:43:42.582Z,21.60
2023-01-18T22:47:09.471Z,21.70
2023-01-18T22:50:36.904Z,19.20
2023-01-18T22:54:04.449Z,18.80
2023-01-18T22:57:35.520Z,20.30
2023-01-18T23:01:05.566Z,20.30
2023-01-18T23:04:34.593Z,21.30
2023-01-18T23:08:06.044Z,23.00
2023-01-18T23:11:34.767Z,23.80
2023-01-18T23:15:19.226Z,21.10
2023-01-18T23:18:48.941Z,20.90
2023-01-18T23:22:16.007Z,23.60
2023-01-18T23:25:47.306Z,21.50
2023-01-18T23:29:22.476Z,25.80
2023-01-18T23:32:53.054Z,27.20
2023-01-18T23:36:20.531Z,27.00
2023-01-18T23:40:06.356Z,28.60
2023-01-18T23:43:51.231Z,27.30
2023-01-18T23:47:36.210Z,28.20
2023-01-18T23:51:21.603Z,26.60
2023-01-18T23:54:48.949Z,28.90
2023-01-18T23:58:16.229Z,32.80
